Weather forecast for Bulen (Булен)

Russia, 519 m
N52.847, E104.807


Sounding

Red line — air temperature ˚C.
Blue line — thermal bubble temperature ˚C.
Green line — dew point temperature ˚C.
Wind speed is in meters per second.

Table forecast

GFS 0.25˚ model

temp. wind gust humid. clouds prec. press. hpbl
Tue17 00:00 13 247.0 wsw 1 1 51 89 0.0 1009 10
03:00 12 277.0 w 1 1 52 100 0.0 1010 11
06:00 13 321.0 nw 5 12 78 100 0.4 1010 501
09:00 14 280.0 w 5 8 82 64 2.5 1012 613
12:00 19 304.0 nw 6 9 53 5 0.7 1010 1576
15:00 20 334.0 nnw 6 8 39 95 0.8 1009 2431
18:00 21 322.0 nw 6 8 31 30 0.0 1009 2629
21:00 17 310.0 nw 4 7 51 21 0.0 1011 150
 
Wed18 00:00 13 275.0 w 2 2 59 5 0.0 1013 12
03:00 11 235.0 sw 2 2 66 52 0.0 1014 14
06:00 10 198.0 ssw 1 1 72 16 0.0 1014 10
09:00 15 249.0 wsw 2 2 57 55 0.0 1015 263
12:00 21 275.0 w 3 4 39 42 0.0 1013 1808
15:00 24 299.0 wnw 3 4 29 28 0.0 1012 2667
18:00 24 283.0 wnw 2 3 27 10 0.0 1011 2703
21:00 20 330.0 nnw 2 2 41 11 0.0 1011 20
 
Thu19 00:00 15 95.0 e 1 1 50 5 0.0 1012 11
03:00 13 138.0 se 1 1 56 5 0.0 1013 10
06:00 12 97.0 e 1 1 61 13 0.0 1013 10
09:00 17 169.0 s 1 1 48 50 0.0 1013 177
12:00 22 255.0 wsw 3 4 36 23 0.0 1012 840
15:00 26 266.0 w 4 6 28 84 0.0 1011 2495
18:00 26 329.0 nnw 6 6 29 100 0.0 1010 1906
21:00 20 354.0 n 2 2 48 88 0.0 1010 24
 
Fri20 00:00 16 83.0 e 1 1 58 95 0.0 1011 11
03:00 15 72.0 ene 2 2 62 69 0.0 1011 11
06:00 13 50.0 ne 1 1 69 97 0.0 1010 10
09:00 18 83.0 e 1 2 54 94 0.0 1010 207
12:00 24 42.0 ne 1 1 38 100 0.0 1009 692
15:00 27 320.0 nw 2 3 29 40 0.0 1008 1704
18:00 28 255.0 wsw 2 4 24 56 0.0 1006 2496
21:00 23 326.0 nw 6 11 44 66 0.0 1007 280
 
Sat21 00:00 17 41.0 ne 3 6 71 61 0.9 1010 103
03:00 15 329.0 nnw 1 1 78 100 0.9 1011 12
06:00 14 235.0 sw 1 1 89 100 0.4 1011 11
09:00 15 48.0 ne 1 2 84 100 0.6 1012 111
12:00 18 232.0 sw 2 2 60 100 0.0 1012 612
15:00 22 225.0 sw 3 4 46 100 0.0 1010 1236
18:00 24 271.0 w 3 5 38 91 0.0 1007 1691
21:00 21 273.0 w 1 2 49 5 0.0 1008 30
 

0.020 s